sensor_id;sensor_type;location;lat;lon;timestamp;P1;durP1;ratioP1;P2;durP2;ratioP2
2872;SDS011;1444;49.166;7.312;2022-07-23T00:00:03;10.60;;;7.87;;
2872;SDS011;1444;49.166;7.312;2022-07-23T00:02:31;7.83;;;7.03;;
2872;SDS011;1444;49.166;7.312;2022-07-23T00:04:57;9.40;;;8.03;;
2872;SDS011;1444;49.166;7.312;2022-07-23T00:07:24;9.70;;;8.70;;
2872;SDS011;1444;49.166;7.312;2022-07-23T00:09:51;7.83;;;6.83;;
2872;SDS011;1444;49.166;7.312;2022-07-23T00:12:19;8.73;;;7.60;;
2872;SDS011;1444;49.166;7.312;2022-07-23T00:14:46;9.60;;;7.30;;
2872;SDS011;1444;49.166;7.312;2022-07-23T00:17:12;9.90;;;7.43;;
2872;SDS011;1444;49.166;7.312;2022-07-23T00:19:39;8.13;;;7.33;;
2872;SDS011;1444;49.166;7.312;2022-07-23T00:22:06;13.30;;;8.07;;
2872;SDS011;1444;49.166;7.312;2022-07-23T00:24:33;10.83;;;7.50;;
2872;SDS011;1444;49.166;7.312;2022-07-23T00:26:59;8.47;;;7.40;;
2872;SDS011;1444;49.166;7.312;2022-07-23T00:29:27;8.70;;;7.80;;
2872;SDS011;1444;49.166;7.312;2022-07-23T00:31:54;7.63;;;6.93;;
2872;SDS011;1444;49.166;7.312;2022-07-23T00:34:21;12.10;;;7.57;;
2872;SDS011;1444;49.166;7.312;2022-07-23T00:36:48;8.87;;;6.80;;
2872;SDS011;1444;49.166;7.312;2022-07-23T00:39:14;9.23;;;7.33;;
2872;SDS011;1444;49.166;7.312;2022-07-23T00:41:41;7.77;;;6.90;;
2872;SDS011;1444;49.166;7.312;2022-07-23T00:44:14;10.67;;;7.00;;
2872;SDS011;1444;49.166;7.312;2022-07-23T00:46:46;8.77;;;6.87;;
2872;SDS011;1444;49.166;7.312;2022-07-23T00:49:13;8.13;;;7.17;;
2872;SDS011;1444;49.166;7.312;2022-07-23T00:51:40;8.07;;;7.20;;
2872;SDS011;1444;49.166;7.312;2022-07-23T00:54:07;8.33;;;7.53;;
2872;SDS011;1444;49.166;7.312;2022-07-23T00:56:34;9.00;;;6.80;;
2872;SDS011;1444;49.166;7.312;2022-07-23T00:59:01;7.30;;;6.60;;
2872;SDS011;1444;49.166;7.312;2022-07-23T01:01:28;8.87;;;7.13;;
2872;SDS011;1444;49.166;7.312;2022-07-23T01:03:56;7.50;;;6.80;;
2872;SDS011;1444;49.166;7.312;2022-07-23T01:06:22;8.47;;;6.70;;
2872;SDS011;1444;49.166;7.312;2022-07-23T01:08:49;8.13;;;7.33;;
2872;SDS011;1444;49.166;7.312;2022-07-23T01:11:16;12.27;;;7.80;;
2872;SDS011;1444;49.166;7.312;2022-07-23T01:13:44;7.40;;;6.73;;
2872;SDS011;1444;49.166;7.312;2022-07-23T01:16:10;10.70;;;8.00;;
2872;SDS011;1444;49.166;7.312;2022-07-23T01:18:37;8.90;;;7.40;;
2872;SDS011;1444;49.166;7.312;2022-07-23T01:21:05;9.37;;;7.93;;
2872;SDS011;1444;49.166;7.312;2022-07-23T01:23:34;9.07;;;7.23;;
2872;SDS011;1444;49.166;7.312;2022-07-23T01:26:00;10.07;;;9.00;;
2872;SDS011;1444;49.166;7.312;2022-07-23T01:28:27;13.70;;;9.80;;
2872;SDS011;1444;49.166;7.312;2022-07-23T01:30:54;9.33;;;8.03;;
2872;SDS011;1444;49.166;7.312;2022-07-23T01:33:20;11.90;;;7.60;;
2872;SDS011;1444;49.166;7.312;2022-07-23T01:35:47;9.27;;;8.33;;
2872;SDS011;1444;49.166;7.312;2022-07-23T01:38:14;11.63;;;8.50;;
2872;SDS011;1444;49.166;7.312;2022-07-23T01:40:42;11.40;;;9.87;;
2872;SDS011;1444;49.166;7.312;2022-07-23T01:43:08;9.97;;;8.60;;
2872;SDS011;1444;49.166;7.312;2022-07-23T01:45:35;13.70;;;9.40;;
2872;SDS011;1444;49.166;7.312;2022-07-23T01:48:02;10.83;;;9.00;;
2872;SDS011;1444;49.166;7.312;2022-07-23T01:50:28;10.30;;;9.30;;
2872;SDS011;1444;49.166;7.312;2022-07-23T01:52:55;11.40;;;10.20;;
2872;SDS011;1444;49.166;7.312;2022-07-23T01:55:22;10.90;;;9.60;;
2872;SDS011;1444;49.166;7.312;2022-07-23T01:57:50;11.90;;;9.33;;
2872;SDS011;1444;49.166;7.312;2022-07-23T02:00:17;10.77;;;9.67;;
2872;SDS011;1444;49.166;7.312;2022-07-23T02:02:43;11.97;;;9.43;;
2872;SDS011;1444;49.166;7.312;2022-07-23T02:05:10;9.90;;;8.90;;
2872;SDS011;1444;49.166;7.312;2022-07-23T02:07:37;9.80;;;8.83;;
2872;SDS011;1444;49.166;7.312;2022-07-23T02:10:04;12.07;;;9.47;;
2872;SDS011;1444;49.166;7.312;2022-07-23T02:12:31;13.00;;;10.67;;
2872;SDS011;1444;49.166;7.312;2022-07-23T02:14:59;16.83;;;10.90;;
2872;SDS011;1444;49.166;7.312;2022-07-23T02:17:26;15.03;;;11.13;;
2872;SDS011;1444;49.166;7.312;2022-07-23T02:19:53;11.23;;;9.80;;
2872;SDS011;1444;49.166;7.312;2022-07-23T02:22:19;12.73;;;11.13;;
2872;SDS011;1444;49.166;7.312;2022-07-23T02:24:46;11.00;;;9.87;;
2872;SDS011;1444;49.166;7.312;2022-07-23T02:27:13;14.50;;;10.60;;
2872;SDS011;1444;49.166;7.312;2022-07-23T02:29:39;17.83;;;11.90;;
2872;SDS011;1444;49.166;7.312;2022-07-23T02:32:07;13.47;;;11.00;;
2872;SDS011;1444;49.166;7.312;2022-07-23T02:34:34;12.47;;;10.00;;
2872;SDS011;1444;49.166;7.312;2022-07-23T02:37:01;13.67;;;11.07;;
2872;SDS011;1444;49.166;7.312;2022-07-23T02:39:27;12.03;;;10.50;;
2872;SDS011;1444;49.166;7.312;2022-07-23T02:41:54;16.30;;;10.30;;
2872;SDS011;1444;49.166;7.312;2022-07-23T02:44:21;13.93;;;11.00;;
2872;SDS011;1444;49.166;7.312;2022-07-23T02:46:47;17.60;;;12.87;;
2872;SDS011;1444;49.166;7.312;2022-07-23T02:49:16;14.93;;;12.37;;
2872;SDS011;1444;49.166;7.312;2022-07-23T02:51:42;13.60;;;12.20;;
2872;SDS011;1444;49.166;7.312;2022-07-23T02:54:09;14.57;;;12.30;;
2872;SDS011;1444;49.166;7.312;2022-07-23T02:56:36;18.20;;;11.73;;
2872;SDS011;1444;49.166;7.312;2022-07-23T02:59:02;12.93;;;11.20;;
2872;SDS011;1444;49.166;7.312;2022-07-23T03:01:29;12.67;;;10.80;;
2872;SDS011;1444;49.166;7.312;2022-07-23T03:03:56;22.50;;;12.57;;
2872;SDS011;1444;49.166;7.312;2022-07-23T03:06:24;18.80;;;11.70;;
2872;SDS011;1444;49.166;7.312;2022-07-23T03:08:51;16.07;;;13.03;;
2872;SDS011;1444;49.166;7.312;2022-07-23T03:11:17;15.57;;;11.70;;
2872;SDS011;1444;49.166;7.312;2022-07-23T03:13:44;12.73;;;11.30;;
2872;SDS011;1444;49.166;7.312;2022-07-23T03:16:11;14.10;;;11.70;;
2872;SDS011;1444;49.166;7.312;2022-07-23T03:18:37;14.90;;;13.20;;
2872;SDS011;1444;49.166;7.312;2022-07-23T03:21:04;13.67;;;11.83;;
2872;SDS011;1444;49.166;7.312;2022-07-23T03:23:32;15.00;;;13.10;;
2872;SDS011;1444;49.166;7.312;2022-07-23T03:25:59;14.60;;;11.70;;
2872;SDS011;1444;49.166;7.312;2022-07-23T03:28:26;17.50;;;13.10;;
2872;SDS011;1444;49.166;7.312;2022-07-23T03:30:53;18.43;;;12.73;;
2872;SDS011;1444;49.166;7.312;2022-07-23T03:33:20;15.90;;;12.30;;
2872;SDS011;1444;49.166;7.312;2022-07-23T03:35:47;17.77;;;12.50;;
2872;SDS011;1444;49.166;7.312;2022-07-23T03:38:14;13.70;;;11.27;;
2872;SDS011;1444;49.166;7.312;2022-07-23T03:40:42;18.00;;;13.40;;
2872;SDS011;1444;49.166;7.312;2022-07-23T03:43:09;14.43;;;11.80;;
2872;SDS011;1444;49.166;7.312;2022-07-23T03:45:35;14.63;;;11.30;;
2872;SDS011;1444;49.166;7.312;2022-07-23T03:48:02;14.30;;;11.47;;
2872;SDS011;1444;49.166;7.312;2022-07-23T03:50:29;23.83;;;12.70;;
2872;SDS011;1444;49.166;7.312;2022-07-23T03:52:55;17.03;;;12.60;;
2872;SDS011;1444;49.166;7.312;2022-07-23T03:55:22;18.13;;;13.30;;
2872;SDS011;1444;49.166;7.312;2022-07-23T03:57:50;14.17;;;11.93;;
2872;SDS011;1444;49.166;7.312;2022-07-23T04:00:17;14.53;;;12.60;;
2872;SDS011;1444;49.166;7.312;2022-07-23T04:02:43;16.30;;;12.03;;
2872;SDS011;1444;49.166;7.312;2022-07-23T04:05:10;15.33;;;12.13;;
2872;SDS011;1444;49.166;7.312;2022-07-23T04:07:37;15.00;;;12.90;;
2872;SDS011;1444;49.166;7.312;2022-07-23T04:10:05;18.50;;;14.00;;
2872;SDS011;1444;49.166;7.312;2022-07-23T04:12:33;16.23;;;12.50;;
2872;SDS011;1444;49.166;7.312;2022-07-23T04:15:02;13.93;;;11.50;;
2872;SDS011;1444;49.166;7.312;2022-07-23T04:17:29;16.53;;;13.17;;
2872;SDS011;1444;49.166;7.312;2022-07-23T04:19:56;15.77;;;12.70;;
2872;SDS011;1444;49.166;7.312;2022-07-23T04:22:22;18.73;;;14.00;;
2872;SDS011;1444;49.166;7.312;2022-07-23T04:24:49;17.70;;;13.33;;
2872;SDS011;1444;49.166;7.312;2022-07-23T04:27:16;18.97;;;14.17;;
2872;SDS011;1444;49.166;7.312;2022-07-23T04:29:42;23.23;;;13.77;;
2872;SDS011;1444;49.166;7.312;2022-07-23T04:32:10;15.63;;;13.30;;
2872;SDS011;1444;49.166;7.312;2022-07-23T04:34:37;15.53;;;12.60;;
2872;SDS011;1444;49.166;7.312;2022-07-23T04:37:04;15.47;;;13.37;;
2872;SDS011;1444;49.166;7.312;2022-07-23T04:39:31;19.83;;;13.80;;
2872;SDS011;1444;49.166;7.312;2022-07-23T04:41:57;23.07;;;13.80;;
2872;SDS011;1444;49.166;7.312;2022-07-23T04:44:24;20.47;;;13.97;;
2872;SDS011;1444;49.166;7.312;2022-07-23T04:46:51;17.80;;;13.37;;
2872;SDS011;1444;49.166;7.312;2022-07-23T04:49:19;17.27;;;12.50;;
2872;SDS011;1444;49.166;7.312;2022-07-23T04:51:45;17.10;;;14.63;;
2872;SDS011;1444;49.166;7.312;2022-07-23T04:54:12;14.20;;;12.50;;
2872;SDS011;1444;49.166;7.312;2022-07-23T04:56:39;22.13;;;13.20;;
2872;SDS011;1444;49.166;7.312;2022-07-23T04:59:05;15.03;;;12.83;;
2872;SDS011;1444;49.166;7.312;2022-07-23T05:01:32;16.30;;;13.87;;
2872;SDS011;1444;49.166;7.312;2022-07-23T05:03:59;17.40;;;13.87;;
2872;SDS011;1444;49.166;7.312;2022-07-23T05:06:27;16.20;;;13.60;;
2872;SDS011;1444;49.166;7.312;2022-07-23T05:08:53;18.83;;;14.03;;
2872;SDS011;1444;49.166;7.312;2022-07-23T05:11:21;19.50;;;14.30;;
2872;SDS011;1444;49.166;7.312;2022-07-23T05:13:47;18.57;;;14.47;;
2872;SDS011;1444;49.166;7.312;2022-07-23T05:16:14;19.60;;;15.53;;
2872;SDS011;1444;49.166;7.312;2022-07-23T05:18:41;19.40;;;15.60;;
2872;SDS011;1444;49.166;7.312;2022-07-23T05:21:07;16.97;;;14.80;;
2872;SDS011;1444;49.166;7.312;2022-07-23T05:23:35;24.40;;;15.23;;
2872;SDS011;1444;49.166;7.312;2022-07-23T05:26:02;18.00;;;15.10;;
2872;SDS011;1444;49.166;7.312;2022-07-23T05:28:29;18.73;;;15.20;;
2872;SDS011;1444;49.166;7.312;2022-07-23T05:30:55;20.20;;;15.20;;
2872;SDS011;1444;49.166;7.312;2022-07-23T05:33:22;17.70;;;13.70;;
2872;SDS011;1444;49.166;7.312;2022-07-23T05:35:49;17.20;;;14.73;;
2872;SDS011;1444;49.166;7.312;2022-07-23T05:38:15;25.80;;;15.43;;
2872;SDS011;1444;49.166;7.312;2022-07-23T05:40:43;18.50;;;15.57;;
2872;SDS011;1444;49.166;7.312;2022-07-23T05:43:10;18.07;;;15.17;;
2872;SDS011;1444;49.166;7.312;2022-07-23T05:45:37;19.40;;;15.33;;
2872;SDS011;1444;49.166;7.312;2022-07-23T05:48:04;17.40;;;13.87;;
2872;SDS011;1444;49.166;7.312;2022-07-23T05:50:31;20.90;;;16.13;;
2872;SDS011;1444;49.166;7.312;2022-07-23T05:52:57;21.73;;;14.23;;
2872;SDS011;1444;49.166;7.312;2022-07-23T05:55:24;22.13;;;16.40;;
2872;SDS011;1444;49.166;7.312;2022-07-23T05:57:55;17.53;;;14.20;;
2872;SDS011;1444;49.166;7.312;2022-07-23T06:00:22;20.60;;;15.13;;
2872;SDS011;1444;49.166;7.312;2022-07-23T06:02:48;28.37;;;14.90;;
2872;SDS011;1444;49.166;7.312;2022-07-23T06:05:15;18.60;;;15.83;;
2872;SDS011;1444;49.166;7.312;2022-07-23T06:07:42;24.30;;;13.60;;
2872;SDS011;1444;49.166;7.312;2022-07-23T06:10:09;20.17;;;15.10;;
2872;SDS011;1444;49.166;7.312;2022-07-23T06:12:36;18.07;;;13.87;;
2872;SDS011;1444;49.166;7.312;2022-07-23T06:15:04;17.27;;;14.57;;
2872;SDS011;1444;49.166;7.312;2022-07-23T06:17:32;21.60;;;15.53;;
2872;SDS011;1444;49.166;7.312;2022-07-23T06:19:58;18.17;;;14.47;;
2872;SDS011;1444;49.166;7.312;2022-07-23T06:22:25;20.83;;;15.27;;
2872;SDS011;1444;49.166;7.312;2022-07-23T06:24:52;19.27;;;15.67;;
2872;SDS011;1444;49.166;7.312;2022-07-23T06:27:18;26.50;;;15.43;;
2872;SDS011;1444;49.166;7.312;2022-07-23T06:29:45;18.80;;;14.60;;
2872;SDS011;1444;49.166;7.312;2022-07-23T06:32:13;20.20;;;16.20;;
2872;SDS011;1444;49.166;7.312;2022-07-23T06:34:40;16.23;;;14.50;;
2872;SDS011;1444;49.166;7.312;2022-07-23T06:37:06;22.27;;;15.53;;
2872;SDS011;1444;49.166;7.312;2022-07-23T06:39:33;18.93;;;15.30;;
2872;SDS011;1444;49.166;7.312;2022-07-23T06:42:00;22.67;;;14.67;;
2872;SDS011;1444;49.166;7.312;2022-07-23T06:44:27;19.10;;;15.83;;
2872;SDS011;1444;49.166;7.312;2022-07-23T06:46:54;21.53;;;15.40;;
2872;SDS011;1444;49.166;7.312;2022-07-23T06:49:22;21.83;;;15.43;;
2872;SDS011;1444;49.166;7.312;2022-07-23T06:51:48;17.90;;;14.13;;
2872;SDS011;1444;49.166;7.312;2022-07-23T06:54:15;16.73;;;14.33;;
2872;SDS011;1444;49.166;7.312;2022-07-23T06:56:42;17.33;;;15.20;;
2872;SDS011;1444;49.166;7.312;2022-07-23T06:59:09;19.50;;;15.90;;
2872;SDS011;1444;49.166;7.312;2022-07-23T07:01:36;17.93;;;16.10;;
2872;SDS011;1444;49.166;7.312;2022-07-23T07:04:02;18.13;;;13.80;;
2872;SDS011;1444;49.166;7.312;2022-07-23T07:06:31;16.20;;;14.00;;
2872;SDS011;1444;49.166;7.312;2022-07-23T07:08:57;21.30;;;14.50;;
2872;SDS011;1444;49.166;7.312;2022-07-23T07:11:24;17.37;;;13.73;;
2872;SDS011;1444;49.166;7.312;2022-07-23T07:13:51;16.97;;;14.33;;
2872;SDS011;1444;49.166;7.312;2022-07-23T07:16:18;16.50;;;13.57;;
2872;SDS011;1444;49.166;7.312;2022-07-23T07:18:45;17.33;;;14.30;;
2872;SDS011;1444;49.166;7.312;2022-07-23T07:21:12;20.20;;;15.47;;
2872;SDS011;1444;49.166;7.312;2022-07-23T07:23:40;16.20;;;14.27;;
2872;SDS011;1444;49.166;7.312;2022-07-23T07:26:06;23.87;;;15.37;;
2872;SDS011;1444;49.166;7.312;2022-07-23T07:28:33;18.57;;;14.07;;
2872;SDS011;1444;49.166;7.312;2022-07-23T07:31:00;21.73;;;16.23;;
2872;SDS011;1444;49.166;7.312;2022-07-23T07:33:26;16.87;;;14.77;;
2872;SDS011;1444;49.166;7.312;2022-07-23T07:35:53;19.00;;;13.70;;
2872;SDS011;1444;49.166;7.312;2022-07-23T07:38:20;18.43;;;15.53;;
2872;SDS011;1444;49.166;7.312;2022-07-23T07:40:48;17.67;;;13.63;;
2872;SDS011;1444;49.166;7.312;2022-07-23T07:43:15;18.00;;;13.73;;
2872;SDS011;1444;49.166;7.312;2022-07-23T07:45:42;20.97;;;16.80;;
2872;SDS011;1444;49.166;7.312;2022-07-23T07:48:08;19.57;;;14.30;;
2872;SDS011;1444;49.166;7.312;2022-07-23T07:50:35;17.97;;;15.33;;
2872;SDS011;1444;49.166;7.312;2022-07-23T07:53:02;19.17;;;15.13;;
2872;SDS011;1444;49.166;7.312;2022-07-23T07:55:29;15.23;;;13.63;;
2872;SDS011;1444;49.166;7.312;2022-07-23T07:57:57;18.90;;;15.43;;
2872;SDS011;1444;49.166;7.312;2022-07-23T08:00:24;17.80;;;14.90;;
2872;SDS011;1444;49.166;7.312;2022-07-23T08:02:51;16.30;;;14.33;;
2872;SDS011;1444;49.166;7.312;2022-07-23T08:05:19;19.60;;;14.90;;
2872;SDS011;1444;49.166;7.312;2022-07-23T08:07:47;16.33;;;14.63;;
2872;SDS011;1444;49.166;7.312;2022-07-23T08:10:13;20.17;;;14.60;;
2872;SDS011;1444;49.166;7.312;2022-07-23T08:12:41;17.23;;;14.03;;
2872;SDS011;1444;49.166;7.312;2022-07-23T08:15:11;18.57;;;14.57;;
2872;SDS011;1444;49.166;7.312;2022-07-23T08:17:38;19.03;;;14.90;;
2872;SDS011;1444;49.166;7.312;2022-07-23T08:20:06;18.07;;;14.37;;
2872;SDS011;1444;49.166;7.312;2022-07-23T08:22:44;15.33;;;13.20;;
2872;SDS011;1444;49.166;7.312;2022-07-23T08:25:11;18.90;;;13.90;;
2872;SDS011;1444;49.166;7.312;2022-07-23T08:27:38;15.70;;;14.10;;
2872;SDS011;1444;49.166;7.312;2022-07-23T08:30:06;14.97;;;13.43;;
2872;SDS011;1444;49.166;7.312;2022-07-23T08:32:35;20.13;;;15.30;;
2872;SDS011;1444;49.166;7.312;2022-07-23T08:35:14;20.50;;;15.90;;
2872;SDS011;1444;49.166;7.312;2022-07-23T08:37:40;20.53;;;13.47;;
2872;SDS011;1444;49.166;7.312;2022-07-23T08:40:07;18.20;;;15.10;;
2872;SDS011;1444;49.166;7.312;2022-07-23T08:42:35;18.53;;;15.20;;
2872;SDS011;1444;49.166;7.312;2022-07-23T08:45:02;19.70;;;14.27;;
2872;SDS011;1444;49.166;7.312;2022-07-23T08:47:29;15.60;;;12.80;;
2872;SDS011;1444;49.166;7.312;2022-07-23T08:49:58;15.77;;;11.90;;
2872;SDS011;1444;49.166;7.312;2022-07-23T08:52:25;15.80;;;12.63;;
2872;SDS011;1444;49.166;7.312;2022-07-23T08:54:52;15.43;;;13.87;;
2872;SDS011;1444;49.166;7.312;2022-07-23T08:57:20;15.17;;;13.23;;
2872;SDS011;1444;49.166;7.312;2022-07-23T08:59:47;16.60;;;12.97;;
2872;SDS011;1444;49.166;7.312;2022-07-23T09:02:14;16.30;;;12.93;;
2872;SDS011;1444;49.166;7.312;2022-07-23T09:04:41;15.53;;;13.93;;
2872;SDS011;1444;49.166;7.312;2022-07-23T09:07:09;14.63;;;12.43;;
2872;SDS011;1444;49.166;7.312;2022-07-23T09:09:36;14.83;;;12.43;;
2872;SDS011;1444;49.166;7.312;2022-07-23T09:12:03;17.20;;;12.23;;
2872;SDS011;1444;49.166;7.312;2022-07-23T09:14:38;20.40;;;13.70;;
2872;SDS011;1444;49.166;7.312;2022-07-23T09:17:10;14.17;;;12.67;;
2872;SDS011;1444;49.166;7.312;2022-07-23T09:19:38;14.43;;;12.93;;
2872;SDS011;1444;49.166;7.312;2022-07-23T09:25:02;12.60;;;11.40;;
2872;SDS011;1444;49.166;7.312;2022-07-23T09:27:46;11.00;;;9.90;;
2872;SDS011;1444;49.166;7.312;2022-07-23T09:30:18;15.73;;;12.03;;
2872;SDS011;1444;49.166;7.312;2022-07-23T09:35:47;14.30;;;11.87;;
2872;SDS011;1444;49.166;7.312;2022-07-23T09:38:17;11.13;;;9.97;;
2872;SDS011;1444;49.166;7.312;2022-07-23T09:40:44;17.10;;;11.00;;
2872;SDS011;1444;49.166;7.312;2022-07-23T09:43:12;10.77;;;9.63;;
2872;SDS011;1444;49.166;7.312;2022-07-23T09:45:51;19.87;;;10.60;;
2872;SDS011;1444;49.166;7.312;2022-07-23T09:48:18;14.13;;;11.40;;
2872;SDS011;1444;49.166;7.312;2022-07-23T09:50:44;12.40;;;11.03;;
2872;SDS011;1444;49.166;7.312;2022-07-23T09:53:13;12.47;;;11.20;;
2872;SDS011;1444;49.166;7.312;2022-07-23T09:55:51;13.10;;;11.70;;
2872;SDS011;1444;49.166;7.312;2022-07-23T09:58:20;12.80;;;11.47;;
2872;SDS011;1444;49.166;7.312;2022-07-23T10:00:48;12.80;;;10.57;;
2872;SDS011;1444;49.166;7.312;2022-07-23T10:03:16;15.03;;;12.20;;
2872;SDS011;1444;49.166;7.312;2022-07-23T10:05:45;18.93;;;11.57;;
2872;SDS011;1444;49.166;7.312;2022-07-23T10:08:13;12.90;;;11.57;;
2872;SDS011;1444;49.166;7.312;2022-07-23T10:10:46;12.67;;;11.43;;
2872;SDS011;1444;49.166;7.312;2022-07-23T10:13:14;17.70;;;12.37;;
2872;SDS011;1444;49.166;7.312;2022-07-23T10:16:07;12.53;;;11.23;;
2872;SDS011;1444;49.166;7.312;2022-07-23T10:18:34;16.87;;;11.80;;
2872;SDS011;1444;49.166;7.312;2022-07-23T10:21:01;12.77;;;11.43;;
2872;SDS011;1444;49.166;7.312;2022-07-23T10:23:33;18.47;;;12.40;;
2872;SDS011;1444;49.166;7.312;2022-07-23T10:26:09;11.93;;;10.63;;
2872;SDS011;1444;49.166;7.312;2022-07-23T10:28:44;17.83;;;11.03;;
2872;SDS011;1444;49.166;7.312;2022-07-23T10:31:26;11.97;;;10.50;;
2872;SDS011;1444;49.166;7.312;2022-07-23T10:34:02;10.77;;;9.77;;
2872;SDS011;1444;49.166;7.312;2022-07-23T10:36:42;11.30;;;9.90;;
2872;SDS011;1444;49.166;7.312;2022-07-23T10:39:15;12.97;;;11.43;;
2872;SDS011;1444;49.166;7.312;2022-07-23T10:41:47;11.93;;;10.67;;
2872;SDS011;1444;49.166;7.312;2022-07-23T10:44:15;12.07;;;10.67;;
2872;SDS011;1444;49.166;7.312;2022-07-23T10:46:55;11.57;;;10.20;;
2872;SDS011;1444;49.166;7.312;2022-07-23T10:49:30;11.10;;;10.00;;
2872;SDS011;1444;49.166;7.312;2022-07-23T10:52:20;11.77;;;10.57;;
2872;SDS011;1444;49.166;7.312;2022-07-23T10:54:49;16.37;;;10.60;;
2872;SDS011;1444;49.166;7.312;2022-07-23T10:57:18;10.63;;;9.63;;
2872;SDS011;1444;49.166;7.312;2022-07-23T11:02:43;13.67;;;11.10;;
2872;SDS011;1444;49.166;7.312;2022-07-23T11:05:12;9.60;;;8.77;;
2872;SDS011;1444;49.166;7.312;2022-07-23T11:10:40;10.60;;;9.60;;
2872;SDS011;1444;49.166;7.312;2022-07-23T11:16:03;11.20;;;10.00;;
2872;SDS011;1444;49.166;7.312;2022-07-23T11:18:57;9.77;;;8.87;;
2872;SDS011;1444;49.166;7.312;2022-07-23T11:21:43;14.20;;;10.33;;
2872;SDS011;1444;49.166;7.312;2022-07-23T11:24:11;9.30;;;8.43;;
2872;SDS011;1444;49.166;7.312;2022-07-23T11:26:43;18.70;;;9.97;;
2872;SDS011;1444;49.166;7.312;2022-07-23T11:35:00;14.33;;;10.17;;
2872;SDS011;1444;49.166;7.312;2022-07-23T11:37:28;10.77;;;9.77;;
2872;SDS011;1444;49.166;7.312;2022-07-23T11:39:58;10.30;;;8.73;;
2872;SDS011;1444;49.166;7.312;2022-07-23T11:42:25;10.40;;;9.50;;
2872;SDS011;1444;49.166;7.312;2022-07-23T11:44:53;11.77;;;10.53;;
2872;SDS011;1444;49.166;7.312;2022-07-23T11:47:23;10.73;;;9.63;;
2872;SDS011;1444;49.166;7.312;2022-07-23T11:49:54;14.43;;;10.20;;
2872;SDS011;1444;49.166;7.312;2022-07-23T11:52:23;12.93;;;10.80;;
2872;SDS011;1444;49.166;7.312;2022-07-23T11:54:52;10.93;;;9.83;;
2872;SDS011;1444;49.166;7.312;2022-07-23T11:57:27;10.77;;;9.77;;
2872;SDS011;1444;49.166;7.312;2022-07-23T11:59:57;11.33;;;10.23;;
2872;SDS011;1444;49.166;7.312;2022-07-23T12:02:26;14.10;;;9.73;;
2872;SDS011;1444;49.166;7.312;2022-07-23T12:04:53;13.20;;;9.93;;
2872;SDS011;1444;49.166;7.312;2022-07-23T12:07:24;10.93;;;9.83;;
2872;SDS011;1444;49.166;7.312;2022-07-23T12:09:52;12.77;;;11.47;;
2872;SDS011;1444;49.166;7.312;2022-07-23T12:12:19;12.50;;;9.70;;
2872;SDS011;1444;49.166;7.312;2022-07-23T12:14:47;12.67;;;11.37;;
2872;SDS011;1444;49.166;7.312;2022-07-23T12:17:17;10.67;;;9.70;;
2872;SDS011;1444;49.166;7.312;2022-07-23T12:19:44;9.90;;;8.93;;
2872;SDS011;1444;49.166;7.312;2022-07-23T12:22:12;10.00;;;9.00;;
2872;SDS011;1444;49.166;7.312;2022-07-23T12:24:52;10.33;;;9.33;;
2872;SDS011;1444;49.166;7.312;2022-07-23T12:27:23;11.10;;;10.00;;
2872;SDS011;1444;49.166;7.312;2022-07-23T12:29:51;14.43;;;10.00;;
2872;SDS011;1444;49.166;7.312;2022-07-23T12:32:20;11.00;;;9.97;;
2872;SDS011;1444;49.166;7.312;2022-07-23T12:34:49;12.40;;;9.90;;
2872;SDS011;1444;49.166;7.312;2022-07-23T12:37:27;10.93;;;9.03;;
2872;SDS011;1444;49.166;7.312;2022-07-23T12:39:55;10.27;;;9.27;;
2872;SDS011;1444;49.166;7.312;2022-07-23T12:42:21;10.37;;;9.27;;
2872;SDS011;1444;49.166;7.312;2022-07-23T12:45:08;10.67;;;9.13;;
2872;SDS011;1444;49.166;7.312;2022-07-23T12:47:58;11.97;;;8.77;;
2872;SDS011;1444;49.166;7.312;2022-07-23T12:53:20;11.60;;;9.20;;
2872;SDS011;1444;49.166;7.312;2022-07-23T12:55:49;12.73;;;9.67;;
2872;SDS011;1444;49.166;7.312;2022-07-23T12:58:17;11.20;;;9.00;;
2872;SDS011;1444;49.166;7.312;2022-07-23T13:00:55;13.67;;;9.53;;
2872;SDS011;1444;49.166;7.312;2022-07-23T13:03:26;14.07;;;9.60;;
2872;SDS011;1444;49.166;7.312;2022-07-23T13:05:55;12.27;;;11.03;;
2872;SDS011;1444;49.166;7.312;2022-07-23T13:08:22;9.27;;;8.30;;
2872;SDS011;1444;49.166;7.312;2022-07-23T13:10:50;11.73;;;10.00;;
2872;SDS011;1444;49.166;7.312;2022-07-23T13:13:19;10.23;;;9.23;;
2872;SDS011;1444;49.166;7.312;2022-07-23T13:15:47;9.47;;;8.43;;
2872;SDS011;1444;49.166;7.312;2022-07-23T13:18:14;9.67;;;8.77;;
2872;SDS011;1444;49.166;7.312;2022-07-23T13:20:43;11.77;;;9.67;;
2872;SDS011;1444;49.166;7.312;2022-07-23T13:23:10;12.63;;;9.83;;
2872;SDS011;1444;49.166;7.312;2022-07-23T13:25:36;11.43;;;10.40;;
2872;SDS011;1444;49.166;7.312;2022-07-23T13:28:03;10.20;;;9.30;;
2872;SDS011;1444;49.166;7.312;2022-07-23T13:30:30;16.60;;;11.10;;
2872;SDS011;1444;49.166;7.312;2022-07-23T13:32:57;11.30;;;9.40;;
2872;SDS011;1444;49.166;7.312;2022-07-23T13:35:24;10.23;;;9.23;;
2872;SDS011;1444;49.166;7.312;2022-07-23T13:37:52;10.60;;;9.53;;
2872;SDS011;1444;49.166;7.312;2022-07-23T13:40:18;12.20;;;9.40;;
2872;SDS011;1444;49.166;7.312;2022-07-23T13:42:45;10.10;;;9.13;;
2872;SDS011;1444;49.166;7.312;2022-07-23T13:45:12;12.27;;;9.50;;
2872;SDS011;1444;49.166;7.312;2022-07-23T13:47:39;10.57;;;9.57;;
2872;SDS011;1444;49.166;7.312;2022-07-23T13:50:06;9.13;;;8.23;;
2872;SDS011;1444;49.166;7.312;2022-07-23T13:52:33;14.53;;;9.03;;
2872;SDS011;1444;49.166;7.312;2022-07-23T13:55:01;10.00;;;8.93;;
2872;SDS011;1444;49.166;7.312;2022-07-23T13:57:29;10.90;;;9.90;;
2872;SDS011;1444;49.166;7.312;2022-07-23T13:59:56;10.40;;;9.40;;
2872;SDS011;1444;49.166;7.312;2022-07-23T14:02:23;9.17;;;8.27;;
2872;SDS011;1444;49.166;7.312;2022-07-23T14:04:50;8.60;;;7.90;;
2872;SDS011;1444;49.166;7.312;2022-07-23T14:07:17;9.73;;;8.73;;
2872;SDS011;1444;49.166;7.312;2022-07-23T14:09:44;10.27;;;9.43;;
2872;SDS011;1444;49.166;7.312;2022-07-23T14:12:12;10.17;;;9.17;;
2872;SDS011;1444;49.166;7.312;2022-07-23T14:14:39;15.60;;;9.63;;
2872;SDS011;1444;49.166;7.312;2022-07-23T14:17:05;9.80;;;8.80;;
2872;SDS011;1444;49.166;7.312;2022-07-23T14:19:33;9.93;;;9.03;;
2872;SDS011;1444;49.166;7.312;2022-07-23T14:22:00;11.03;;;8.93;;
2872;SDS011;1444;49.166;7.312;2022-07-23T14:24:27;10.17;;;9.10;;
2872;SDS011;1444;49.166;7.312;2022-07-23T14:26:54;9.83;;;8.93;;
2872;SDS011;1444;49.166;7.312;2022-07-23T14:29:22;10.20;;;9.30;;
2872;SDS011;1444;49.166;7.312;2022-07-23T14:31:49;9.83;;;8.90;;
2872;SDS011;1444;49.166;7.312;2022-07-23T14:34:15;9.63;;;8.73;;
2872;SDS011;1444;49.166;7.312;2022-07-23T14:36:42;9.70;;;8.70;;
2872;SDS011;1444;49.166;7.312;2022-07-23T14:39:09;9.90;;;8.97;;
2872;SDS011;1444;49.166;7.312;2022-07-23T14:41:37;9.03;;;8.33;;
2872;SDS011;1444;49.166;7.312;2022-07-23T14:44:04;9.80;;;8.87;;
2872;SDS011;1444;49.166;7.312;2022-07-23T14:46:32;11.47;;;9.00;;
2872;SDS011;1444;49.166;7.312;2022-07-23T14:48:59;10.87;;;9.43;;
2872;SDS011;1444;49.166;7.312;2022-07-23T14:51:26;12.60;;;9.83;;
2872;SDS011;1444;49.166;7.312;2022-07-23T14:53:53;10.97;;;9.80;;
2872;SDS011;1444;49.166;7.312;2022-07-23T14:56:19;10.60;;;9.27;;
2872;SDS011;1444;49.166;7.312;2022-07-23T14:58:46;10.50;;;9.47;;
2872;SDS011;1444;49.166;7.312;2022-07-23T15:01:13;9.77;;;8.60;;
2872;SDS011;1444;49.166;7.312;2022-07-23T15:03:41;10.70;;;8.27;;
2872;SDS011;1444;49.166;7.312;2022-07-23T15:06:08;11.30;;;9.87;;
2872;SDS011;1444;49.166;7.312;2022-07-23T15:08:35;9.53;;;8.67;;
2872;SDS011;1444;49.166;7.312;2022-07-23T15:11:01;9.93;;;8.37;;
2872;SDS011;1444;49.166;7.312;2022-07-23T15:13:28;9.30;;;8.40;;
2872;SDS011;1444;49.166;7.312;2022-07-23T15:15:54;8.77;;;7.87;;
2872;SDS011;1444;49.166;7.312;2022-07-23T15:18:21;7.70;;;6.90;;
2872;SDS011;1444;49.166;7.312;2022-07-23T15:20:49;10.80;;;7.80;;
2872;SDS011;1444;49.166;7.312;2022-07-23T15:23:16;8.57;;;7.67;;